Terminal Aerodrome Forecast
Issued by NWS Charleston, WV

Current Version | Previous Version | Text Only | Print | Product List | Glossary Off
Versions: 1 2 3 4 5 6 7 8 9 10 11 12 13 14 15 16 17 18 19 20 21

787
FTUS41 KRLX 272359 AAA
TAFPKB
TAF AMD
KPKB 272359Z 2800/2824 VRB03KT 6SM SHRA BR VCTS OVC040CB
      TEMPO 2800/2803 5SM +SHRA BR OVC012
     FM280300 00000KT P6SM OVC025
      TEMPO 2803/2807 2SM +SHRA OVC007
     FM280800 VRB03KT P6SM OVC015
      TEMPO 2808/2809 1SM +SHRA OVC007
     FM280900 VRB03KT 2SM +SHRA OVC010
     FM281600 00000KT 3SM +SHRA OVC001
     FM281700 00000KT 3SM +SHRA VCTS OVC001CB
     FM281900 02004KT 2SM +SHRA VCTS OVC015CB
     FM282100 36006KT 3SM +SHRA VCTS OVC025CB
     FM282300 01007KT 4SM +SHRA OVC025=

USA.gov is the U.S. government's official web portal to all federal, state and local government web resources and services.